sensor_id;sensor_type;location;lat;lon;timestamp;P1;durP1;ratioP1;P2;durP2;ratioP2
1402;SDS011;696;48.546;9.896;2023-04-21T00:01:45;48.58;;;25.65;;
1402;SDS011;696;48.546;9.896;2023-04-21T00:04:11;48.20;;;25.33;;
1402;SDS011;696;48.546;9.896;2023-04-21T00:06:37;50.03;;;25.33;;
1402;SDS011;696;48.546;9.896;2023-04-21T00:09:05;44.17;;;25.38;;
1402;SDS011;696;48.546;9.896;2023-04-21T00:11:31;52.83;;;26.25;;
1402;SDS011;696;48.546;9.896;2023-04-21T00:13:56;54.15;;;24.90;;
1402;SDS011;696;48.546;9.896;2023-04-21T00:16:22;48.83;;;25.67;;
1402;SDS011;696;48.546;9.896;2023-04-21T00:18:47;53.85;;;26.88;;
1402;SDS011;696;48.546;9.896;2023-04-21T00:21:13;45.20;;;25.58;;
1402;SDS011;696;48.546;9.896;2023-04-21T00:23:38;57.05;;;27.65;;
1402;SDS011;696;48.546;9.896;2023-04-21T00:26:04;54.33;;;26.95;;
1402;SDS011;696;48.546;9.896;2023-04-21T00:28:29;57.40;;;28.73;;
1402;SDS011;696;48.546;9.896;2023-04-21T00:30:55;55.83;;;26.23;;
1402;SDS011;696;48.546;9.896;2023-04-21T00:33:20;51.35;;;27.00;;
1402;SDS011;696;48.546;9.896;2023-04-21T00:35:46;49.35;;;27.98;;
1402;SDS011;696;48.546;9.896;2023-04-21T00:38:11;56.58;;;28.33;;
1402;SDS011;696;48.546;9.896;2023-04-21T00:40:36;58.97;;;27.67;;
1402;SDS011;696;48.546;9.896;2023-04-21T00:43:04;69.35;;;29.13;;
1402;SDS011;696;48.546;9.896;2023-04-21T00:45:30;57.17;;;27.35;;
1402;SDS011;696;48.546;9.896;2023-04-21T00:47:56;46.75;;;25.58;;
1402;SDS011;696;48.546;9.896;2023-04-21T00:50:21;53.70;;;27.90;;
1402;SDS011;696;48.546;9.896;2023-04-21T00:52:47;57.42;;;27.60;;
1402;SDS011;696;48.546;9.896;2023-04-21T00:55:13;51.33;;;27.02;;
1402;SDS011;696;48.546;9.896;2023-04-21T00:57:38;59.83;;;28.23;;
1402;SDS011;696;48.546;9.896;2023-04-21T01:00:04;58.95;;;26.42;;
1402;SDS011;696;48.546;9.896;2023-04-21T01:02:30;59.30;;;27.13;;
1402;SDS011;696;48.546;9.896;2023-04-21T01:04:56;55.47;;;27.60;;
1402;SDS011;696;48.546;9.896;2023-04-21T01:07:23;49.78;;;26.17;;
1402;SDS011;696;48.546;9.896;2023-04-21T01:09:49;43.72;;;25.45;;
1402;SDS011;696;48.546;9.896;2023-04-21T01:12:14;61.45;;;28.77;;
1402;SDS011;696;48.546;9.896;2023-04-21T01:14:40;55.05;;;28.42;;
1402;SDS011;696;48.546;9.896;2023-04-21T01:17:05;45.28;;;24.98;;
1402;SDS011;696;48.546;9.896;2023-04-21T01:19:37;50.20;;;27.38;;
1402;SDS011;696;48.546;9.896;2023-04-21T01:22:05;53.72;;;26.45;;
1402;SDS011;696;48.546;9.896;2023-04-21T01:24:38;47.88;;;27.77;;
1402;SDS011;696;48.546;9.896;2023-04-21T01:27:09;51.72;;;26.48;;
1402;SDS011;696;48.546;9.896;2023-04-21T01:29:43;48.95;;;25.52;;
1402;SDS011;696;48.546;9.896;2023-04-21T01:32:12;42.95;;;23.95;;
1402;SDS011;696;48.546;9.896;2023-04-21T01:34:39;48.45;;;24.73;;
1402;SDS011;696;48.546;9.896;2023-04-21T01:37:08;42.08;;;23.77;;
1402;SDS011;696;48.546;9.896;2023-04-21T01:39:38;47.13;;;24.38;;
1402;SDS011;696;48.546;9.896;2023-04-21T01:42:04;46.67;;;23.90;;
1402;SDS011;696;48.546;9.896;2023-04-21T01:44:29;46.78;;;23.83;;
1402;SDS011;696;48.546;9.896;2023-04-21T01:46:55;45.90;;;23.77;;
1402;SDS011;696;48.546;9.896;2023-04-21T01:49:20;43.40;;;23.02;;
1402;SDS011;696;48.546;9.896;2023-04-21T01:51:45;47.95;;;23.88;;
1402;SDS011;696;48.546;9.896;2023-04-21T01:54:11;45.67;;;24.42;;
1402;SDS011;696;48.546;9.896;2023-04-21T01:56:36;42.08;;;21.80;;
1402;SDS011;696;48.546;9.896;2023-04-21T01:59:02;40.53;;;22.83;;
1402;SDS011;696;48.546;9.896;2023-04-21T02:01:28;48.25;;;23.38;;
1402;SDS011;696;48.546;9.896;2023-04-21T02:03:53;40.05;;;22.85;;
1402;SDS011;696;48.546;9.896;2023-04-21T02:06:18;43.20;;;22.10;;
1402;SDS011;696;48.546;9.896;2023-04-21T02:08:44;50.28;;;22.77;;
1402;SDS011;696;48.546;9.896;2023-04-21T02:11:09;53.47;;;23.25;;
1402;SDS011;696;48.546;9.896;2023-04-21T02:13:34;52.88;;;22.92;;
1402;SDS011;696;48.546;9.896;2023-04-21T02:16:00;45.75;;;23.50;;
1402;SDS011;696;48.546;9.896;2023-04-21T02:18:25;34.85;;;20.98;;
1402;SDS011;696;48.546;9.896;2023-04-21T02:20:53;45.63;;;21.40;;
1402;SDS011;696;48.546;9.896;2023-04-21T02:23:19;53.38;;;24.42;;
1402;SDS011;696;48.546;9.896;2023-04-21T02:25:45;45.13;;;23.05;;
1402;SDS011;696;48.546;9.896;2023-04-21T02:28:10;44.47;;;23.77;;
1402;SDS011;696;48.546;9.896;2023-04-21T02:30:36;44.53;;;21.30;;
1402;SDS011;696;48.546;9.896;2023-04-21T02:33:01;42.28;;;21.23;;
1402;SDS011;696;48.546;9.896;2023-04-21T02:35:26;42.53;;;20.98;;
1402;SDS011;696;48.546;9.896;2023-04-21T02:37:52;37.63;;;20.42;;
1402;SDS011;696;48.546;9.896;2023-04-21T02:40:17;41.17;;;21.50;;
1402;SDS011;696;48.546;9.896;2023-04-21T02:42:42;41.33;;;20.52;;
1402;SDS011;696;48.546;9.896;2023-04-21T02:45:08;41.63;;;22.80;;
1402;SDS011;696;48.546;9.896;2023-04-21T02:47:34;40.03;;;21.05;;
1402;SDS011;696;48.546;9.896;2023-04-21T02:49:59;42.47;;;21.90;;
1402;SDS011;696;48.546;9.896;2023-04-21T02:52:25;39.70;;;20.58;;
1402;SDS011;696;48.546;9.896;2023-04-21T02:54:50;47.28;;;20.95;;
1402;SDS011;696;48.546;9.896;2023-04-21T02:57:16;41.03;;;19.80;;
1402;SDS011;696;48.546;9.896;2023-04-21T02:59:41;56.67;;;21.88;;
1402;SDS011;696;48.546;9.896;2023-04-21T03:02:06;37.85;;;20.92;;
1402;SDS011;696;48.546;9.896;2023-04-21T03:04:32;41.45;;;21.27;;
1402;SDS011;696;48.546;9.896;2023-04-21T03:06:57;40.03;;;19.25;;
1402;SDS011;696;48.546;9.896;2023-04-21T03:09:23;39.88;;;19.17;;
1402;SDS011;696;48.546;9.896;2023-04-21T03:11:48;37.85;;;19.85;;
1402;SDS011;696;48.546;9.896;2023-04-21T03:14:13;30.48;;;18.52;;
1402;SDS011;696;48.546;9.896;2023-04-21T03:16:39;34.10;;;19.00;;
1402;SDS011;696;48.546;9.896;2023-04-21T03:19:04;45.22;;;20.58;;
1402;SDS011;696;48.546;9.896;2023-04-21T03:21:30;31.90;;;17.45;;
1402;SDS011;696;48.546;9.896;2023-04-21T03:23:55;33.03;;;16.73;;
1402;SDS011;696;48.546;9.896;2023-04-21T03:26:21;44.17;;;18.00;;
1402;SDS011;696;48.546;9.896;2023-04-21T03:28:46;37.70;;;18.98;;
1402;SDS011;696;48.546;9.896;2023-04-21T03:31:11;35.97;;;18.35;;
1402;SDS011;696;48.546;9.896;2023-04-21T03:33:37;38.17;;;18.30;;
1402;SDS011;696;48.546;9.896;2023-04-21T03:36:02;33.90;;;17.17;;
1402;SDS011;696;48.546;9.896;2023-04-21T03:38:28;37.80;;;18.05;;
1402;SDS011;696;48.546;9.896;2023-04-21T03:40:53;34.70;;;17.02;;
1402;SDS011;696;48.546;9.896;2023-04-21T03:43:19;41.30;;;16.55;;
1402;SDS011;696;48.546;9.896;2023-04-21T03:45:44;40.80;;;16.15;;
1402;SDS011;696;48.546;9.896;2023-04-21T03:48:10;33.10;;;17.15;;
1402;SDS011;696;48.546;9.896;2023-04-21T03:50:36;46.20;;;17.60;;
1402;SDS011;696;48.546;9.896;2023-04-21T03:53:02;27.23;;;14.90;;
1402;SDS011;696;48.546;9.896;2023-04-21T03:55:27;31.58;;;16.15;;
1402;SDS011;696;48.546;9.896;2023-04-21T03:57:52;49.67;;;18.00;;
1402;SDS011;696;48.546;9.896;2023-04-21T04:00:18;36.45;;;17.38;;
1402;SDS011;696;48.546;9.896;2023-04-21T04:02:45;37.72;;;17.88;;
1402;SDS011;696;48.546;9.896;2023-04-21T04:05:10;33.20;;;17.05;;
1402;SDS011;696;48.546;9.896;2023-04-21T04:07:35;30.92;;;14.82;;
1402;SDS011;696;48.546;9.896;2023-04-21T04:10:01;34.78;;;15.55;;
1402;SDS011;696;48.546;9.896;2023-04-21T04:12:26;38.08;;;16.60;;
1402;SDS011;696;48.546;9.896;2023-04-21T04:14:51;31.35;;;16.23;;
1402;SDS011;696;48.546;9.896;2023-04-21T04:17:17;37.90;;;17.42;;
1402;SDS011;696;48.546;9.896;2023-04-21T04:19:42;37.55;;;17.70;;
1402;SDS011;696;48.546;9.896;2023-04-21T04:22:08;35.10;;;17.30;;
1402;SDS011;696;48.546;9.896;2023-04-21T04:24:33;36.95;;;17.80;;
1402;SDS011;696;48.546;9.896;2023-04-21T04:26:59;38.55;;;17.05;;
1402;SDS011;696;48.546;9.896;2023-04-21T04:29:26;33.42;;;16.48;;
1402;SDS011;696;48.546;9.896;2023-04-21T04:31:52;33.45;;;16.95;;
1402;SDS011;696;48.546;9.896;2023-04-21T04:34:17;38.95;;;17.55;;
1402;SDS011;696;48.546;9.896;2023-04-21T04:36:43;31.50;;;16.20;;
1402;SDS011;696;48.546;9.896;2023-04-21T04:39:09;30.35;;;16.25;;
1402;SDS011;696;48.546;9.896;2023-04-21T04:41:34;33.20;;;17.25;;
1402;SDS011;696;48.546;9.896;2023-04-21T04:44:03;33.63;;;15.55;;
1402;SDS011;696;48.546;9.896;2023-04-21T04:46:29;29.38;;;15.75;;
1402;SDS011;696;48.546;9.896;2023-04-21T04:48:55;29.65;;;15.90;;
1402;SDS011;696;48.546;9.896;2023-04-21T04:51:20;31.83;;;16.40;;
1402;SDS011;696;48.546;9.896;2023-04-21T04:53:47;29.63;;;16.30;;
1402;SDS011;696;48.546;9.896;2023-04-21T04:56:12;31.25;;;16.23;;
1402;SDS011;696;48.546;9.896;2023-04-21T04:58:37;36.50;;;16.85;;
1402;SDS011;696;48.546;9.896;2023-04-21T05:01:13;35.75;;;17.23;;
1402;SDS011;696;48.546;9.896;2023-04-21T05:03:38;35.42;;;17.70;;
1402;SDS011;696;48.546;9.896;2023-04-21T05:06:04;45.55;;;17.23;;
1402;SDS011;696;48.546;9.896;2023-04-21T05:08:29;32.90;;;15.27;;
1402;SDS011;696;48.546;9.896;2023-04-21T05:10:55;27.30;;;14.50;;
1402;SDS011;696;48.546;9.896;2023-04-21T05:13:20;37.17;;;14.90;;
1402;SDS011;696;48.546;9.896;2023-04-21T05:15:45;31.95;;;14.75;;
1402;SDS011;696;48.546;9.896;2023-04-21T05:18:11;34.70;;;14.40;;
1402;SDS011;696;48.546;9.896;2023-04-21T05:20:39;25.67;;;14.20;;
1402;SDS011;696;48.546;9.896;2023-04-21T05:23:05;33.05;;;14.15;;
1402;SDS011;696;48.546;9.896;2023-04-21T05:25:30;30.33;;;14.65;;
1402;SDS011;696;48.546;9.896;2023-04-21T05:27:56;28.17;;;14.40;;
1402;SDS011;696;48.546;9.896;2023-04-21T05:30:21;25.88;;;14.50;;
1402;SDS011;696;48.546;9.896;2023-04-21T05:32:46;25.55;;;13.43;;
1402;SDS011;696;48.546;9.896;2023-04-21T05:35:12;20.50;;;12.93;;
1402;SDS011;696;48.546;9.896;2023-04-21T05:37:37;24.08;;;13.18;;
1402;SDS011;696;48.546;9.896;2023-04-21T05:40:02;24.77;;;13.23;;
1402;SDS011;696;48.546;9.896;2023-04-21T05:42:28;31.55;;;12.38;;
1402;SDS011;696;48.546;9.896;2023-04-21T05:44:53;24.83;;;12.73;;
1402;SDS011;696;48.546;9.896;2023-04-21T05:47:19;27.05;;;12.77;;
1402;SDS011;696;48.546;9.896;2023-04-21T05:49:44;22.20;;;12.43;;
1402;SDS011;696;48.546;9.896;2023-04-21T05:52:14;24.42;;;13.75;;
1402;SDS011;696;48.546;9.896;2023-04-21T05:54:40;24.63;;;12.82;;
1402;SDS011;696;48.546;9.896;2023-04-21T05:57:05;29.95;;;14.35;;
1402;SDS011;696;48.546;9.896;2023-04-21T05:59:32;30.25;;;14.27;;
1402;SDS011;696;48.546;9.896;2023-04-21T06:01:57;19.40;;;12.30;;
1402;SDS011;696;48.546;9.896;2023-04-21T06:04:23;26.52;;;13.80;;
1402;SDS011;696;48.546;9.896;2023-04-21T06:06:48;23.85;;;13.10;;
1402;SDS011;696;48.546;9.896;2023-04-21T06:09:13;24.58;;;13.90;;
1402;SDS011;696;48.546;9.896;2023-04-21T06:11:39;30.30;;;14.38;;
1402;SDS011;696;48.546;9.896;2023-04-21T06:14:05;26.13;;;12.75;;
1402;SDS011;696;48.546;9.896;2023-04-21T06:16:30;24.70;;;13.13;;
1402;SDS011;696;48.546;9.896;2023-04-21T06:18:58;29.05;;;13.48;;
1402;SDS011;696;48.546;9.896;2023-04-21T06:21:23;30.08;;;13.65;;
1402;SDS011;696;48.546;9.896;2023-04-21T06:23:49;25.70;;;12.57;;
1402;SDS011;696;48.546;9.896;2023-04-21T06:26:14;24.38;;;12.80;;
1402;SDS011;696;48.546;9.896;2023-04-21T06:28:39;24.00;;;11.93;;
1402;SDS011;696;48.546;9.896;2023-04-21T06:31:05;29.13;;;12.73;;
1402;SDS011;696;48.546;9.896;2023-04-21T06:33:31;25.73;;;12.75;;
1402;SDS011;696;48.546;9.896;2023-04-21T06:35:56;23.70;;;12.43;;
1402;SDS011;696;48.546;9.896;2023-04-21T06:38:21;23.30;;;13.00;;
1402;SDS011;696;48.546;9.896;2023-04-21T06:40:47;21.95;;;12.23;;
1402;SDS011;696;48.546;9.896;2023-04-21T06:43:12;17.90;;;11.10;;
1402;SDS011;696;48.546;9.896;2023-04-21T06:45:38;22.70;;;12.70;;
1402;SDS011;696;48.546;9.896;2023-04-21T06:48:03;28.63;;;12.98;;
1402;SDS011;696;48.546;9.896;2023-04-21T06:50:29;19.88;;;12.15;;
1402;SDS011;696;48.546;9.896;2023-04-21T06:52:54;18.90;;;11.57;;
1402;SDS011;696;48.546;9.896;2023-04-21T06:55:20;20.95;;;11.48;;
1402;SDS011;696;48.546;9.896;2023-04-21T06:57:45;19.40;;;11.80;;
1402;SDS011;696;48.546;9.896;2023-04-21T07:00:11;23.50;;;11.27;;
1402;SDS011;696;48.546;9.896;2023-04-21T07:02:36;20.92;;;11.90;;
1402;SDS011;696;48.546;9.896;2023-04-21T07:05:02;18.77;;;10.68;;
1402;SDS011;696;48.546;9.896;2023-04-21T07:07:27;25.40;;;10.48;;
1402;SDS011;696;48.546;9.896;2023-04-21T07:09:53;18.42;;;11.27;;
1402;SDS011;696;48.546;9.896;2023-04-21T07:12:18;19.63;;;11.75;;
1402;SDS011;696;48.546;9.896;2023-04-21T07:14:43;18.35;;;11.00;;
1402;SDS011;696;48.546;9.896;2023-04-21T07:17:09;22.92;;;10.98;;
1402;SDS011;696;48.546;9.896;2023-04-21T07:19:34;18.73;;;9.20;;
1402;SDS011;696;48.546;9.896;2023-04-21T07:22:00;13.20;;;9.50;;
1402;SDS011;696;48.546;9.896;2023-04-21T07:24:26;14.43;;;9.18;;
1402;SDS011;696;48.546;9.896;2023-04-21T07:26:51;14.32;;;9.82;;
1402;SDS011;696;48.546;9.896;2023-04-21T07:29:17;16.92;;;11.05;;
1402;SDS011;696;48.546;9.896;2023-04-21T07:31:42;16.30;;;10.13;;
1402;SDS011;696;48.546;9.896;2023-04-21T07:34:07;15.15;;;9.77;;
1402;SDS011;696;48.546;9.896;2023-04-21T07:36:32;20.35;;;10.73;;
1402;SDS011;696;48.546;9.896;2023-04-21T07:38:58;19.25;;;9.98;;
1402;SDS011;696;48.546;9.896;2023-04-21T07:41:23;17.35;;;10.50;;
1402;SDS011;696;48.546;9.896;2023-04-21T07:43:49;18.77;;;10.68;;
1402;SDS011;696;48.546;9.896;2023-04-21T07:46:14;20.33;;;10.60;;
1402;SDS011;696;48.546;9.896;2023-04-21T07:48:39;17.42;;;9.68;;
1402;SDS011;696;48.546;9.896;2023-04-21T07:51:05;14.23;;;9.63;;
1402;SDS011;696;48.546;9.896;2023-04-21T07:53:30;16.45;;;9.25;;
1402;SDS011;696;48.546;9.896;2023-04-21T07:55:56;21.80;;;11.27;;
1402;SDS011;696;48.546;9.896;2023-04-21T07:58:21;17.73;;;9.80;;
1402;SDS011;696;48.546;9.896;2023-04-21T08:00:47;17.27;;;9.63;;
1402;SDS011;696;48.546;9.896;2023-04-21T08:03:12;15.80;;;9.48;;
1402;SDS011;696;48.546;9.896;2023-04-21T08:05:38;15.13;;;9.07;;
1402;SDS011;696;48.546;9.896;2023-04-21T08:08:03;18.30;;;10.77;;
1402;SDS011;696;48.546;9.896;2023-04-21T08:10:29;16.90;;;10.10;;
1402;SDS011;696;48.546;9.896;2023-04-21T08:12:54;19.80;;;10.00;;
1402;SDS011;696;48.546;9.896;2023-04-21T08:15:20;13.40;;;8.68;;
1402;SDS011;696;48.546;9.896;2023-04-21T08:17:45;16.60;;;9.52;;
1402;SDS011;696;48.546;9.896;2023-04-21T08:20:11;11.63;;;8.38;;
1402;SDS011;696;48.546;9.896;2023-04-21T08:22:36;16.27;;;8.82;;
1402;SDS011;696;48.546;9.896;2023-04-21T08:25:02;16.95;;;9.35;;
1402;SDS011;696;48.546;9.896;2023-04-21T08:27:28;13.02;;;8.85;;
1402;SDS011;696;48.546;9.896;2023-04-21T08:29:54;20.67;;;9.65;;
1402;SDS011;696;48.546;9.896;2023-04-21T08:32:19;11.35;;;8.30;;
1402;SDS011;696;48.546;9.896;2023-04-21T08:34:48;16.13;;;9.27;;
1402;SDS011;696;48.546;9.896;2023-04-21T08:37:15;13.65;;;9.20;;
1402;SDS011;696;48.546;9.896;2023-04-21T08:39:42;13.45;;;8.88;;
1402;SDS011;696;48.546;9.896;2023-04-21T08:42:07;11.82;;;8.10;;
1402;SDS011;696;48.546;9.896;2023-04-21T08:44:33;14.55;;;9.02;;
1402;SDS011;696;48.546;9.896;2023-04-21T08:46:59;15.50;;;8.43;;
1402;SDS011;696;48.546;9.896;2023-04-21T08:49:25;13.00;;;8.38;;
1402;SDS011;696;48.546;9.896;2023-04-21T08:51:53;19.33;;;9.52;;
1402;SDS011;696;48.546;9.896;2023-04-21T08:54:19;11.82;;;8.75;;
1402;SDS011;696;48.546;9.896;2023-04-21T08:56:46;13.52;;;8.77;;
1402;SDS011;696;48.546;9.896;2023-04-21T08:59:11;13.70;;;9.20;;
1402;SDS011;696;48.546;9.896;2023-04-21T09:04:38;18.48;;;9.27;;
1402;SDS011;696;48.546;9.896;2023-04-21T09:07:04;11.57;;;8.52;;
1402;SDS011;696;48.546;9.896;2023-04-21T09:09:30;18.02;;;9.48;;
1402;SDS011;696;48.546;9.896;2023-04-21T09:11:55;25.35;;;11.02;;
1402;SDS011;696;48.546;9.896;2023-04-21T09:14:27;17.08;;;10.65;;
1402;SDS011;696;48.546;9.896;2023-04-21T09:16:59;16.65;;;10.32;;
1402;SDS011;696;48.546;9.896;2023-04-21T09:19:28;15.75;;;10.35;;
1402;SDS011;696;48.546;9.896;2023-04-21T09:21:54;16.58;;;10.45;;
1402;SDS011;696;48.546;9.896;2023-04-21T09:24:20;20.65;;;9.95;;
1402;SDS011;696;48.546;9.896;2023-04-21T09:26:49;15.82;;;9.55;;
1402;SDS011;696;48.546;9.896;2023-04-21T09:29:15;15.80;;;10.07;;
1402;SDS011;696;48.546;9.896;2023-04-21T09:31:41;13.95;;;9.50;;
1402;SDS011;696;48.546;9.896;2023-04-21T09:34:21;18.77;;;11.32;;
1402;SDS011;696;48.546;9.896;2023-04-21T09:36:51;14.45;;;9.32;;
1402;SDS011;696;48.546;9.896;2023-04-21T09:39:23;15.10;;;9.88;;
1402;SDS011;696;48.546;9.896;2023-04-21T09:41:49;14.60;;;10.85;;
1402;SDS011;696;48.546;9.896;2023-04-21T09:44:14;15.88;;;10.32;;
1402;SDS011;696;48.546;9.896;2023-04-21T09:46:41;20.88;;;10.68;;
1402;SDS011;696;48.546;9.896;2023-04-21T09:49:08;19.55;;;11.45;;
1402;SDS011;696;48.546;9.896;2023-04-21T09:51:34;19.38;;;9.98;;
1402;SDS011;696;48.546;9.896;2023-04-21T09:54:01;17.55;;;10.70;;
1402;SDS011;696;48.546;9.896;2023-04-21T09:56:35;13.77;;;9.50;;
1402;SDS011;696;48.546;9.896;2023-04-21T09:59:01;14.50;;;9.90;;
1402;SDS011;696;48.546;9.896;2023-04-21T10:01:30;16.48;;;9.77;;
1402;SDS011;696;48.546;9.896;2023-04-21T10:03:56;14.88;;;9.07;;
1402;SDS011;696;48.546;9.896;2023-04-21T10:06:21;14.50;;;8.50;;
1402;SDS011;696;48.546;9.896;2023-04-21T10:08:47;15.63;;;10.18;;
1402;SDS011;696;48.546;9.896;2023-04-21T10:11:14;13.25;;;9.25;;
1402;SDS011;696;48.546;9.896;2023-04-21T10:13:39;15.90;;;9.32;;
1402;SDS011;696;48.546;9.896;2023-04-21T10:16:06;17.33;;;10.05;;
1402;SDS011;696;48.546;9.896;2023-04-21T10:18:34;17.67;;;9.93;;
1402;SDS011;696;48.546;9.896;2023-04-21T10:21:06;14.23;;;9.23;;
1402;SDS011;696;48.546;9.896;2023-04-21T10:23:42;14.25;;;9.50;;
1402;SDS011;696;48.546;9.896;2023-04-21T10:26:16;12.52;;;8.93;;
1402;SDS011;696;48.546;9.896;2023-04-21T10:31:24;13.95;;;9.85;;
1402;SDS011;696;48.546;9.896;2023-04-21T10:36:42;13.73;;;9.30;;
1402;SDS011;696;48.546;9.896;2023-04-21T10:41:55;18.23;;;9.68;;
1402;SDS011;696;48.546;9.896;2023-04-21T10:44:51;15.85;;;9.00;;
1402;SDS011;696;48.546;9.896;2023-04-21T10:47:51;11.25;;;8.18;;
1402;SDS011;696;48.546;9.896;2023-04-21T10:50:11;14.18;;;8.70;;
1402;SDS011;696;48.546;9.896;2023-04-21T10:52:46;11.50;;;8.98;;
1402;SDS011;696;48.546;9.896;2023-04-21T10:55:18;14.02;;;8.32;;
1402;SDS011;696;48.546;9.896;2023-04-21T10:57:45;12.23;;;8.27;;
1402;SDS011;696;48.546;9.896;2023-04-21T11:00:14;14.60;;;9.82;;
1402;SDS011;696;48.546;9.896;2023-04-21T11:03:01;12.52;;;8.00;;
1402;SDS011;696;48.546;9.896;2023-04-21T11:05:28;11.00;;;8.20;;
1402;SDS011;696;48.546;9.896;2023-04-21T11:08:07;12.40;;;8.30;;
1402;SDS011;696;48.546;9.896;2023-04-21T11:10:40;12.23;;;7.55;;
1402;SDS011;696;48.546;9.896;2023-04-21T11:13:16;14.85;;;8.32;;
1402;SDS011;696;48.546;9.896;2023-04-21T11:15:54;13.50;;;8.50;;
1402;SDS011;696;48.546;9.896;2023-04-21T11:18:20;16.13;;;8.80;;
1402;SDS011;696;48.546;9.896;2023-04-21T11:20:45;10.00;;;7.82;;
1402;SDS011;696;48.546;9.896;2023-04-21T11:23:16;12.90;;;8.07;;
1402;SDS011;696;48.546;9.896;2023-04-21T11:25:44;9.82;;;7.90;;
1402;SDS011;696;48.546;9.896;2023-04-21T11:28:10;14.75;;;8.18;;
1402;SDS011;696;48.546;9.896;2023-04-21T11:30:35;12.13;;;7.90;;
1402;SDS011;696;48.546;9.896;2023-04-21T11:33:00;18.02;;;8.73;;
1402;SDS011;696;48.546;9.896;2023-04-21T11:35:26;11.00;;;5.50;;
1402;SDS011;696;48.546;9.896;2023-04-21T11:37:51;16.58;;;8.75;;
1402;SDS011;696;48.546;9.896;2023-04-21T11:40:17;10.88;;;7.70;;
1402;SDS011;696;48.546;9.896;2023-04-21T11:42:43;9.88;;;7.32;;
1402;SDS011;696;48.546;9.896;2023-04-21T11:45:15;11.90;;;7.72;;
1402;SDS011;696;48.546;9.896;2023-04-21T11:47:42;11.82;;;7.70;;
1402;SDS011;696;48.546;9.896;2023-04-21T11:50:07;12.45;;;7.65;;
1402;SDS011;696;48.546;9.896;2023-04-21T11:52:34;23.17;;;8.38;;
1402;SDS011;696;48.546;9.896;2023-04-21T12:00:11;8.40;;;5.50;;
1402;SDS011;696;48.546;9.896;2023-04-21T12:02:38;8.88;;;6.35;;
1402;SDS011;696;48.546;9.896;2023-04-21T12:05:08;10.25;;;6.22;;
1402;SDS011;696;48.546;9.896;2023-04-21T12:07:35;5.88;;;4.95;;
1402;SDS011;696;48.546;9.896;2023-04-21T12:10:19;7.38;;;5.78;;
1402;SDS011;696;48.546;9.896;2023-04-21T12:12:45;17.10;;;5.30;;
1402;SDS011;696;48.546;9.896;2023-04-21T12:15:19;6.75;;;4.68;;
1402;SDS011;696;48.546;9.896;2023-04-21T12:17:46;7.35;;;4.05;;
1402;SDS011;696;48.546;9.896;2023-04-21T12:20:16;5.18;;;4.05;;
1402;SDS011;696;48.546;9.896;2023-04-21T12:22:42;4.32;;;3.85;;
1402;SDS011;696;48.546;9.896;2023-04-21T12:25:08;17.45;;;6.20;;
1402;SDS011;696;48.546;9.896;2023-04-21T12:27:33;7.40;;;3.85;;
1402;SDS011;696;48.546;9.896;2023-04-21T12:29:59;5.35;;;4.30;;
1402;SDS011;696;48.546;9.896;2023-04-21T12:32:24;6.43;;;4.07;;
1402;SDS011;696;48.546;9.896;2023-04-21T12:34:50;6.70;;;4.47;;
1402;SDS011;696;48.546;9.896;2023-04-21T12:37:17;5.80;;;4.53;;
1402;SDS011;696;48.546;9.896;2023-04-21T12:39:42;4.82;;;3.67;;
1402;SDS011;696;48.546;9.896;2023-04-21T12:42:07;5.35;;;3.33;;
1402;SDS011;696;48.546;9.896;2023-04-21T12:44:33;5.05;;;3.47;;
1402;SDS011;696;48.546;9.896;2023-04-21T12:46:58;6.00;;;3.42;;
1402;SDS011;696;48.546;9.896;2023-04-21T12:49:24;7.13;;;3.60;;
1402;SDS011;696;48.546;9.896;2023-04-21T12:51:49;3.78;;;3.42;;
1402;SDS011;696;48.546;9.896;2023-04-21T12:54:15;5.22;;;3.28;;
1402;SDS011;696;48.546;9.896;2023-04-21T12:56:40;3.53;;;3.03;;
1402;SDS011;696;48.546;9.896;2023-04-21T12:59:06;3.58;;;2.80;;
1402;SDS011;696;48.546;9.896;2023-04-21T13:01:33;2.85;;;2.63;;
1402;SDS011;696;48.546;9.896;2023-04-21T13:03:59;6.78;;;3.78;;
1402;SDS011;696;48.546;9.896;2023-04-21T13:06:25;4.60;;;3.20;;
1402;SDS011;696;48.546;9.896;2023-04-21T13:08:52;5.97;;;3.80;;
1402;SDS011;696;48.546;9.896;2023-04-21T13:11:17;5.07;;;3.75;;
1402;SDS011;696;48.546;9.896;2023-04-21T13:13:42;5.88;;;3.55;;
1402;SDS011;696;48.546;9.896;2023-04-21T13:16:08;7.22;;;3.72;;
1402;SDS011;696;48.546;9.896;2023-04-21T13:18:33;5.32;;;2.88;;
1402;SDS011;696;48.546;9.896;2023-04-21T13:20:59;4.85;;;3.42;;
1402;SDS011;696;48.546;9.896;2023-04-21T13:23:25;5.75;;;3.65;;
1402;SDS011;696;48.546;9.896;2023-04-21T13:25:50;3.97;;;2.90;;
1402;SDS011;696;48.546;9.896;2023-04-21T13:28:16;4.80;;;3.05;;
1402;SDS011;696;48.546;9.896;2023-04-21T13:30:42;4.65;;;3.28;;
1402;SDS011;696;48.546;9.896;2023-04-21T13:33:08;5.90;;;3.03;;
1402;SDS011;696;48.546;9.896;2023-04-21T13:35:35;5.18;;;3.40;;
1402;SDS011;696;48.546;9.896;2023-04-21T13:38:00;6.72;;;3.80;;
1402;SDS011;696;48.546;9.896;2023-04-21T13:40:26;5.15;;;3.50;;
1402;SDS011;696;48.546;9.896;2023-04-21T13:42:51;4.05;;;3.15;;
1402;SDS011;696;48.546;9.896;2023-04-21T13:45:16;6.18;;;3.90;;
1402;SDS011;696;48.546;9.896;2023-04-21T13:47:42;4.63;;;3.40;;
1402;SDS011;696;48.546;9.896;2023-04-21T13:50:07;6.32;;;3.67;;
1402;SDS011;696;48.546;9.896;2023-04-21T13:52:33;4.30;;;3.38;;
1402;SDS011;696;48.546;9.896;2023-04-21T13:55:00;3.63;;;3.28;;
1402;SDS011;696;48.546;9.896;2023-04-21T13:57:25;4.10;;;3.70;;
1402;SDS011;696;48.546;9.896;2023-04-21T13:59:50;8.38;;;3.70;;
1402;SDS011;696;48.546;9.896;2023-04-21T14:02:16;6.97;;;4.55;;
1402;SDS011;696;48.546;9.896;2023-04-21T14:04:42;6.70;;;4.88;;
1402;SDS011;696;48.546;9.896;2023-04-21T14:07:07;7.75;;;4.20;;
1402;SDS011;696;48.546;9.896;2023-04-21T14:09:33;5.93;;;4.47;;
1402;SDS011;696;48.546;9.896;2023-04-21T14:11:58;6.25;;;4.85;;
1402;SDS011;696;48.546;9.896;2023-04-21T14:14:25;5.90;;;4.13;;
1402;SDS011;696;48.546;9.896;2023-04-21T14:16:50;7.28;;;4.38;;
1402;SDS011;696;48.546;9.896;2023-04-21T14:19:16;5.40;;;4.28;;
1402;SDS011;696;48.546;9.896;2023-04-21T14:21:41;11.50;;;5.18;;
1402;SDS011;696;48.546;9.896;2023-04-21T14:24:07;7.85;;;4.60;;
1402;SDS011;696;48.546;9.896;2023-04-21T14:26:32;8.07;;;4.68;;
1402;SDS011;696;48.546;9.896;2023-04-21T14:28:58;6.03;;;4.95;;
1402;SDS011;696;48.546;9.896;2023-04-21T14:31:25;9.82;;;6.40;;
1402;SDS011;696;48.546;9.896;2023-04-21T14:33:51;12.18;;;5.43;;
1402;SDS011;696;48.546;9.896;2023-04-21T14:36:16;8.02;;;5.60;;
1402;SDS011;696;48.546;9.896;2023-04-21T14:38:41;8.77;;;5.90;;
1402;SDS011;696;48.546;9.896;2023-04-21T14:41:07;8.45;;;5.32;;
1402;SDS011;696;48.546;9.896;2023-04-21T14:43:33;9.38;;;4.97;;
1402;SDS011;696;48.546;9.896;2023-04-21T14:45:58;10.05;;;5.20;;
1402;SDS011;696;48.546;9.896;2023-04-21T14:48:23;5.78;;;4.68;;
1402;SDS011;696;48.546;9.896;2023-04-21T14:50:49;9.90;;;5.68;;
1402;SDS011;696;48.546;9.896;2023-04-21T14:53:14;7.53;;;4.95;;
1402;SDS011;696;48.546;9.896;2023-04-21T14:55:40;7.05;;;5.28;;
1402;SDS011;696;48.546;9.896;2023-04-21T14:58:05;6.60;;;4.97;;
1402;SDS011;696;48.546;9.896;2023-04-21T15:00:31;7.80;;;6.22;;
1402;SDS011;696;48.546;9.896;2023-04-21T15:02:58;7.78;;;5.93;;
1402;SDS011;696;48.546;9.896;2023-04-21T15:05:24;9.73;;;5.63;;
1402;SDS011;696;48.546;9.896;2023-04-21T15:07:49;10.40;;;5.43;;
1402;SDS011;696;48.546;9.896;2023-04-21T15:10:15;7.78;;;4.97;;
1402;SDS011;696;48.546;9.896;2023-04-21T15:12:40;9.63;;;5.97;;
1402;SDS011;696;48.546;9.896;2023-04-21T15:15:07;9.00;;;5.75;;
1402;SDS011;696;48.546;9.896;2023-04-21T15:17:34;7.30;;;5.47;;
1402;SDS011;696;48.546;9.896;2023-04-21T15:19:59;7.22;;;4.43;;
1402;SDS011;696;48.546;9.896;2023-04-21T15:22:24;6.07;;;4.88;;